Indaiatuba, Brazil
Current Conditions -  °F | °C
As of 6:00 PM on Friday 28 Nov 2014 (Local Time) from SBKP Reporting Station
Few Clouds Few Clouds  
Wind Chill: 81°   Ceiling: Unl
Heat Index: 81°   Visibility: 6mi
Dew Point: 59°   Wind: 16mph
Humidity: 48%   Direction: 150°SSE
Pressure: 29.97"   Gusts: NA
Location:  23.09°S, 47.21°W
Report Text: SBKP 282000Z 15014KT 9999 FEW040 27/15 Q1015
Loading
Personal Weather Stations






























Interactive Weather Map New forecast layout! Learn more

10-Day Weather Forecast

Advertisements
Track Severe Weather on mobile